createdAt,value
2023-03-28T00:02:38.501Z,0.58
2023-03-28T00:05:56.478Z,0.55
2023-03-28T00:09:13.669Z,0.57
2023-03-28T00:12:29.928Z,0.55
2023-03-28T00:15:49.213Z,0.46
2023-03-28T00:19:06.746Z,0.45
2023-03-28T00:22:23.070Z,0.40
2023-03-28T00:25:42.609Z,0.35
2023-03-28T00:28:57.088Z,0.29
2023-03-28T00:32:13.574Z,0.22
2023-03-28T00:35:29.864Z,0.24
2023-03-28T00:38:46.496Z,0.30
2023-03-28T00:42:05.054Z,0.27
2023-03-28T00:45:23.666Z,0.17
2023-03-28T00:48:40.436Z,-0.10
2023-03-28T00:55:18.428Z,-0.08
2023-03-28T00:58:39.318Z,-0.06
2023-03-28T01:01:56.497Z,-0.23
2023-03-28T01:05:14.568Z,-0.13
2023-03-28T01:08:34.451Z,-0.15
2023-03-28T01:11:53.461Z,-0.18
2023-03-28T01:15:12.499Z,-0.23
2023-03-28T01:18:35.481Z,-0.14
2023-03-28T01:22:31.606Z,-0.22
2023-03-28T01:26:24.313Z,-0.26
2023-03-28T01:30:10.463Z,-0.18
2023-03-28T01:34:18.902Z,-0.17
2023-03-28T01:40:57.563Z,-0.26
2023-03-28T01:44:22.005Z,-0.34
2023-03-28T01:47:43.055Z,-0.25
2023-03-28T01:51:05.508Z,-0.32
2023-03-28T01:54:31.640Z,-0.30
2023-03-28T01:57:54.770Z,-0.36
2023-03-28T02:01:16.602Z,-0.39
2023-03-28T02:04:37.338Z,-0.40
2023-03-28T02:08:04.203Z,-0.46
2023-03-28T02:11:22.388Z,-0.51
2023-03-28T02:14:59.536Z,-0.51
2023-03-28T02:18:26.027Z,-0.59
2023-03-28T02:21:53.424Z,-0.61
2023-03-28T02:25:13.020Z,-0.71
2023-03-28T02:28:38.953Z,-0.75
2023-03-28T02:32:15.610Z,-0.76
2023-03-28T02:35:36.428Z,-0.79
2023-03-28T02:39:00.725Z,-0.89
2023-03-28T02:43:03.555Z,-0.95
2023-03-28T02:46:28.417Z,-1.05
2023-03-28T02:49:53.640Z,-1.14
2023-03-28T02:53:16.580Z,-1.15
2023-03-28T02:56:39.413Z,-1.21
2023-03-28T03:00:03.953Z,-1.10
2023-03-28T03:03:22.795Z,-1.12
2023-03-28T03:10:55.031Z,-1.03
2023-03-28T03:14:13.106Z,-0.93
2023-03-28T03:17:30.288Z,-0.98
2023-03-28T03:20:47.543Z,-0.95
2023-03-28T03:27:20.205Z,-1.08
2023-03-28T03:30:37.964Z,-1.01
2023-03-28T03:34:08.866Z,-0.95
2023-03-28T03:37:27.208Z,-0.89
2023-03-28T03:40:43.629Z,-0.86
2023-03-28T03:44:00.019Z,-0.90
2023-03-28T03:47:20.415Z,-0.99
2023-03-28T03:50:37.979Z,-1.02
2023-03-28T03:53:56.234Z,-0.95
2023-03-28T03:57:14.580Z,-0.92
2023-03-28T04:00:31.345Z,-0.81
2023-03-28T04:03:49.004Z,-0.78
2023-03-28T04:10:40.256Z,-0.65
2023-03-28T04:13:57.675Z,-0.64
2023-03-28T04:17:15.561Z,-0.53
2023-03-28T04:20:32.908Z,-0.46
2023-03-28T04:23:53.841Z,-0.48
2023-03-28T04:27:16.723Z,-0.45
2023-03-28T04:30:34.571Z,-0.50
2023-03-28T04:33:55.688Z,-0.49
2023-03-28T04:37:14.219Z,-0.36
2023-03-28T04:40:32.874Z,-0.34
2023-03-28T04:43:51.378Z,-0.30
2023-03-28T04:47:09.508Z,-0.30
2023-03-28T04:50:27.365Z,-0.20
2023-03-28T04:53:44.888Z,-0.18
2023-03-28T04:57:19.243Z,-0.12
2023-03-28T05:00:40.461Z,-0.12
2023-03-28T05:04:14.363Z,-0.08
2023-03-28T05:07:31.072Z,-0.11
2023-03-28T05:10:47.594Z,-0.11
2023-03-28T05:14:04.499Z,-0.06
2023-03-28T05:17:22.565Z,0.03
2023-03-28T05:20:47.320Z,0.09
2023-03-28T05:24:03.805Z,0.12
2023-03-28T05:27:21.224Z,0.14
2023-03-28T05:30:38.187Z,0.14
2023-03-28T05:34:04.442Z,0.21
2023-03-28T05:40:39.951Z,0.28
2023-03-28T05:43:56.271Z,0.35
2023-03-28T05:47:14.515Z,0.44
2023-03-28T05:50:31.791Z,0.60
2023-03-28T05:57:07.562Z,0.65
2023-03-28T06:00:27.858Z,0.59
2023-03-28T06:03:46.227Z,0.45
2023-03-28T06:07:03.220Z,0.40
2023-03-28T06:10:22.974Z,0.46
2023-03-28T06:13:41.674Z,0.33
2023-03-28T06:16:58.821Z,0.42
2023-03-28T06:20:19.546Z,0.40
2023-03-28T06:26:53.537Z,0.46
2023-03-28T06:30:13.967Z,0.53
2023-03-28T06:33:35.678Z,0.59
2023-03-28T06:36:53.453Z,1.08
2023-03-28T06:40:11.892Z,1.14
2023-03-28T06:43:32.075Z,1.80
2023-03-28T06:47:00.201Z,2.03
2023-03-28T06:50:18.709Z,2.05
2023-03-28T06:53:41.265Z,2.17
2023-03-28T06:56:59.884Z,2.01
2023-03-28T07:00:19.902Z,2.76
2023-03-28T07:03:55.292Z,3.36
2023-03-28T07:07:13.667Z,3.34
2023-03-28T07:10:32.773Z,3.15
2023-03-28T07:13:52.439Z,2.89
2023-03-28T07:17:08.831Z,2.84
2023-03-28T07:20:25.990Z,3.31
2023-03-28T07:27:14.018Z,2.99
2023-03-28T07:30:21.990Z,3.49
2023-03-28T07:33:39.262Z,4.14
2023-03-28T07:36:58.018Z,3.95
2023-03-28T07:40:21.172Z,3.75
2023-03-28T07:43:39.702Z,3.52
2023-03-28T07:46:56.770Z,2.87
2023-03-28T07:50:15.745Z,2.73
2023-03-28T07:53:35.206Z,2.54
2023-03-28T07:56:52.616Z,3.16
2023-03-28T08:00:12.685Z,3.21
2023-03-28T08:03:33.353Z,2.97
2023-03-28T08:06:52.468Z,2.81
2023-03-28T08:10:09.315Z,2.57
2023-03-28T08:13:29.416Z,2.36
2023-03-28T08:16:48.537Z,2.96
2023-03-28T08:20:07.068Z,2.99
2023-03-28T08:23:37.784Z,3.06
2023-03-28T08:27:05.846Z,3.26
2023-03-28T08:30:23.849Z,3.17
2023-03-28T08:33:42.557Z,3.06
2023-03-28T08:37:00.848Z,2.96
2023-03-28T08:40:26.176Z,2.70
2023-03-28T08:44:12.033Z,2.40
2023-03-28T08:47:33.554Z,2.47
2023-03-28T08:50:55.217Z,2.39
2023-03-28T08:54:19.356Z,2.42
2023-03-28T08:57:40.237Z,2.29
2023-03-28T09:00:59.126Z,2.23
2023-03-28T09:04:21.543Z,2.14
2023-03-28T09:07:47.335Z,1.99
2023-03-28T09:11:09.519Z,2.04
2023-03-28T09:14:57.607Z,2.18
2023-03-28T09:18:44.837Z,2.51
2023-03-28T09:22:15.730Z,2.43
2023-03-28T09:25:40.934Z,2.46
2023-03-28T09:29:03.652Z,2.42
2023-03-28T09:32:28.791Z,2.40
2023-03-28T09:35:47.940Z,2.35
2023-03-28T09:42:28.172Z,2.30
2023-03-28T09:46:05.770Z,2.26
2023-03-28T09:49:31.638Z,2.07
2023-03-28T09:53:04.956Z,2.09
2023-03-28T09:56:32.196Z,2.30
2023-03-28T09:59:50.976Z,2.26
2023-03-28T10:03:11.476Z,2.24
2023-03-28T10:06:36.437Z,2.13
2023-03-28T10:13:12.474Z,2.25
2023-03-28T10:16:35.118Z,2.31
2023-03-28T10:19:54.881Z,2.63
2023-03-28T10:26:33.844Z,3.29
2023-03-28T10:29:54.437Z,3.41
2023-03-28T10:33:33.999Z,3.50
2023-03-28T10:37:10.801Z,3.49
2023-03-28T10:40:38.217Z,3.68
2023-03-28T10:44:12.201Z,3.73
2023-03-28T10:47:34.133Z,3.96
2023-03-28T10:50:57.402Z,3.77
2023-03-28T10:54:33.437Z,3.81
2023-03-28T10:57:56.992Z,3.72
2023-03-28T11:01:20.417Z,3.65
2023-03-28T11:05:17.724Z,3.47
2023-03-28T11:08:50.359Z,3.76
2023-03-28T11:12:27.943Z,4.10
2023-03-28T11:15:44.816Z,4.05
2023-03-28T11:19:13.677Z,3.93
2023-03-28T11:22:40.834Z,3.80
2023-03-28T11:26:03.625Z,3.52
2023-03-28T11:29:43.264Z,3.53
2023-03-28T11:33:03.009Z,3.09
2023-03-28T11:36:26.368Z,3.11
2023-03-28T11:43:06.658Z,3.03
2023-03-28T11:46:30.701Z,3.37
2023-03-28T11:49:53.288Z,3.56
2023-03-28T11:59:59.652Z,3.24
2023-03-28T12:03:24.418Z,3.56
2023-03-28T12:06:59.526Z,3.82
2023-03-28T12:10:22.825Z,3.91
2023-03-28T12:13:46.305Z,3.73
2023-03-28T12:17:03.356Z,3.72
2023-03-28T12:20:31.017Z,3.69
2023-03-28T12:23:55.779Z,3.72
2023-03-28T12:27:19.955Z,3.58
2023-03-28T12:30:41.413Z,3.44
2023-03-28T12:34:07.657Z,3.47
2023-03-28T12:37:33.236Z,3.41
2023-03-28T12:41:06.719Z,3.42
2023-03-28T12:44:28.107Z,3.44
2023-03-28T12:47:49.025Z,3.51
2023-03-28T12:51:28.641Z,3.79
2023-03-28T12:55:02.729Z,3.83
2023-03-28T12:58:32.452Z,3.81
2023-03-28T13:02:00.511Z,3.76
2023-03-28T13:05:46.015Z,3.66
2023-03-28T13:12:54.528Z,3.58
2023-03-28T13:16:20.862Z,2.88
2023-03-28T13:19:58.058Z,2.59
2023-03-28T13:23:19.956Z,2.15
2023-03-28T13:26:48.875Z,2.06
2023-03-28T13:30:22.635Z,2.30
2023-03-28T13:34:09.366Z,2.42
2023-03-28T13:37:35.601Z,2.66
2023-03-28T13:44:15.578Z,2.79
2023-03-28T13:47:39.686Z,2.88
2023-03-28T13:50:57.712Z,2.94
2023-03-28T13:57:32.517Z,2.96
2023-03-28T14:00:49.842Z,2.89
2023-03-28T14:04:11.684Z,2.73
2023-03-28T14:07:37.874Z,2.19
2023-03-28T14:10:58.023Z,1.67
2023-03-28T14:14:19.837Z,1.01
2023-03-28T14:17:39.819Z,1.03
2023-03-28T14:20:56.622Z,0.92
2023-03-28T14:24:16.832Z,0.89
2023-03-28T14:27:43.514Z,0.88
2023-03-28T14:31:03.534Z,0.89
2023-03-28T14:34:36.236Z,0.76
2023-03-28T14:37:59.949Z,1.01
2023-03-28T14:41:25.003Z,1.09
2023-03-28T14:44:47.535Z,1.22
2023-03-28T14:48:05.269Z,1.34
2023-03-28T14:51:24.214Z,1.43
2023-03-28T14:54:53.187Z,1.49
2023-03-28T14:58:11.237Z,1.60
2023-03-28T15:01:31.558Z,1.67
2023-03-28T15:04:49.062Z,1.57
2023-03-28T15:08:09.610Z,1.65
2023-03-28T15:11:31.035Z,1.74
2023-03-28T15:14:52.867Z,1.83
2023-03-28T15:18:13.933Z,1.89
2023-03-28T15:21:32.537Z,1.91
2023-03-28T15:24:49.810Z,1.84
2023-03-28T15:28:11.613Z,1.89
2023-03-28T15:31:29.297Z,1.89
2023-03-28T15:34:57.922Z,1.91
2023-03-28T15:38:22.390Z,1.89
2023-03-28T15:41:51.623Z,1.80
2023-03-28T15:45:43.926Z,1.70
2023-03-28T15:49:03.770Z,1.69
2023-03-28T15:52:26.364Z,1.61
2023-03-28T15:55:43.432Z,1.70
2023-03-28T15:59:01.348Z,1.59
2023-03-28T16:02:41.805Z,1.63
2023-03-28T16:06:09.670Z,1.68
2023-03-28T16:09:29.293Z,1.48
2023-03-28T16:13:49.348Z,1.43
2023-03-28T16:17:13.930Z,1.51
2023-03-28T16:20:35.865Z,1.48
2023-03-28T16:23:53.987Z,1.41
2023-03-28T16:30:33.093Z,1.45
2023-03-28T16:34:00.265Z,1.38
2023-03-28T16:37:17.394Z,1.37
2023-03-28T16:43:51.240Z,1.52
2023-03-28T16:47:08.620Z,1.56
2023-03-28T16:50:25.606Z,1.53
2023-03-28T16:53:44.229Z,1.39
2023-03-28T16:57:00.781Z,1.35
2023-03-28T17:00:24.108Z,1.21
2023-03-28T17:03:40.850Z,1.03
2023-03-28T17:06:58.398Z,1.05
2023-03-28T17:10:17.505Z,0.97
2023-03-28T17:13:34.371Z,1.00
2023-03-28T17:16:50.730Z,1.00
2023-03-28T17:20:07.474Z,1.00
2023-03-28T17:23:28.265Z,0.96
2023-03-28T17:26:44.548Z,0.74
2023-03-28T17:30:01.222Z,0.76
2023-03-28T17:33:18.253Z,0.78
2023-03-28T17:36:36.538Z,0.84
2023-03-28T17:39:53.388Z,0.80
2023-03-28T17:43:10.471Z,0.80
2023-03-28T17:46:27.064Z,0.74
2023-03-28T17:49:44.094Z,0.79
2023-03-28T17:53:01.573Z,0.79
2023-03-28T17:56:19.918Z,0.67
2023-03-28T17:59:36.423Z,0.72
2023-03-28T18:02:54.101Z,0.67
2023-03-28T18:06:14.294Z,0.61
2023-03-28T18:09:32.822Z,0.57
2023-03-28T18:12:49.820Z,0.58
2023-03-28T18:16:07.935Z,0.60
2023-03-28T18:19:24.965Z,0.69
2023-03-28T18:22:43.317Z,0.51
2023-03-28T18:29:20.131Z,0.54
2023-03-28T18:32:36.744Z,0.57
2023-03-28T18:35:55.554Z,0.57
2023-03-28T18:39:12.782Z,0.66
2023-03-28T18:42:29.382Z,0.58
2023-03-28T18:45:46.572Z,0.62
2023-03-28T18:49:03.741Z,0.59
2023-03-28T18:52:20.421Z,0.58
2023-03-28T18:55:37.279Z,0.55
2023-03-28T18:58:55.022Z,0.58
2023-03-28T19:02:11.955Z,0.56
2023-03-28T19:05:30.012Z,0.50
2023-03-28T19:08:48.497Z,0.48
2023-03-28T19:12:04.942Z,0.49
2023-03-28T19:15:22.977Z,0.49
2023-03-28T19:18:41.901Z,0.43
2023-03-28T19:21:58.354Z,0.45
2023-03-28T19:25:17.228Z,0.52
2023-03-28T19:28:33.863Z,0.57
2023-03-28T19:31:52.880Z,0.48
2023-03-28T19:35:09.676Z,0.50
2023-03-28T19:38:29.051Z,0.42
2023-03-28T19:41:49.039Z,0.48
2023-03-28T19:45:05.310Z,0.44
2023-03-28T19:48:21.985Z,0.46
2023-03-28T19:51:39.712Z,0.41
2023-03-28T19:54:56.221Z,0.48
2023-03-28T19:58:15.033Z,0.49
2023-03-28T20:01:31.970Z,0.45
2023-03-28T20:04:50.474Z,0.45
2023-03-28T20:08:07.098Z,0.44
2023-03-28T20:11:24.713Z,0.45
2023-03-28T20:14:41.289Z,0.41
2023-03-28T20:17:58.116Z,0.43
2023-03-28T20:21:17.633Z,0.40
2023-03-28T20:24:31.924Z,0.40
2023-03-28T20:31:04.668Z,0.31
2023-03-28T20:34:21.740Z,0.35
2023-03-28T20:37:38.201Z,0.35
2023-03-28T20:40:54.745Z,0.34
2023-03-28T20:44:13.451Z,0.22
2023-03-28T20:47:29.892Z,0.21
2023-03-28T20:50:46.441Z,0.23
2023-03-28T20:54:06.119Z,0.18
2023-03-28T20:57:22.636Z,0.23
2023-03-28T21:00:41.000Z,0.29
2023-03-28T21:03:58.945Z,0.26
2023-03-28T21:07:15.922Z,0.35
2023-03-28T21:10:34.166Z,0.36
2023-03-28T21:17:09.278Z,0.33
2023-03-28T21:20:25.983Z,0.40
2023-03-28T21:23:43.509Z,0.25
2023-03-28T21:27:00.106Z,0.34
2023-03-28T21:30:20.372Z,0.31
2023-03-28T21:33:38.332Z,0.30
2023-03-28T21:36:54.713Z,0.28
2023-03-28T21:40:12.628Z,0.31
2023-03-28T21:43:29.096Z,0.27
2023-03-28T21:46:45.785Z,0.29
2023-03-28T21:50:03.967Z,0.29
2023-03-28T21:53:21.252Z,0.28
2023-03-28T21:56:37.750Z,0.29
2023-03-28T21:59:54.203Z,0.30
2023-03-28T22:03:11.926Z,0.33
2023-03-28T22:06:28.644Z,0.26
2023-03-28T22:09:49.061Z,0.35
2023-03-28T22:16:23.786Z,0.29
2023-03-28T22:19:41.027Z,0.23
2023-03-28T22:22:59.302Z,0.17
2023-03-28T22:26:17.019Z,0.20
2023-03-28T22:29:33.467Z,0.14
2023-03-28T22:32:50.060Z,0.15
2023-03-28T22:36:07.246Z,0.16
2023-03-28T22:39:23.882Z,0.10
2023-03-28T22:45:56.482Z,0.10
2023-03-28T22:49:14.005Z,-0.05
2023-03-28T22:52:32.466Z,-0.05
2023-03-28T22:55:49.178Z,-0.14
2023-03-28T22:59:06.872Z,-0.07
2023-03-28T23:02:23.353Z,-0.13
2023-03-28T23:05:39.878Z,-0.21
2023-03-28T23:08:56.515Z,-0.18
2023-03-28T23:15:30.059Z,-0.26
2023-03-28T23:18:46.602Z,-0.25
2023-03-28T23:22:03.281Z,-0.36
2023-03-28T23:25:22.589Z,-0.51
2023-03-28T23:28:39.107Z,-0.49
2023-03-28T23:31:55.535Z,-0.58
2023-03-28T23:35:13.350Z,-0.44
2023-03-28T23:38:29.764Z,-0.58
2023-03-28T23:41:46.358Z,-0.58
2023-03-28T23:45:02.774Z,-0.52
2023-03-28T23:48:19.235Z,-0.58
2023-03-28T23:51:35.827Z,-0.63
2023-03-28T23:54:52.558Z,-0.58
2023-03-28T23:58:08.952Z,-0.66
